createdAt,value
2023-05-14T00:02:13.242Z,9.77
2023-05-14T00:04:43.081Z,7.85
2023-05-14T00:07:11.795Z,9.30
2023-05-14T00:09:39.609Z,11.48
2023-05-14T00:12:08.102Z,10.60
2023-05-14T00:14:35.967Z,8.32
2023-05-14T00:17:06.958Z,8.20
2023-05-14T00:19:34.903Z,7.93
2023-05-14T00:22:04.233Z,8.52
2023-05-14T00:24:32.232Z,10.70
2023-05-14T00:27:00.036Z,10.23
2023-05-14T00:29:28.053Z,9.13
2023-05-14T00:31:55.977Z,8.45
2023-05-14T00:34:23.912Z,9.38
2023-05-14T00:36:52.195Z,10.05
2023-05-14T00:39:21.473Z,9.07
2023-05-14T00:41:49.647Z,7.70
2023-05-14T00:44:17.457Z,6.97
2023-05-14T00:46:45.452Z,8.95
2023-05-14T00:49:13.442Z,11.05
2023-05-14T00:51:42.484Z,7.72
2023-05-14T00:54:10.599Z,10.32
2023-05-14T00:56:40.042Z,8.45
2023-05-14T00:59:08.052Z,7.90
2023-05-14T01:01:37.046Z,10.47
2023-05-14T01:04:06.048Z,11.52
2023-05-14T01:06:43.500Z,10.52
2023-05-14T01:09:19.040Z,12.00
2023-05-14T01:11:56.847Z,9.40
2023-05-14T01:14:34.249Z,10.73
2023-05-14T01:17:06.227Z,9.30
2023-05-14T01:19:38.535Z,9.65
2023-05-14T01:22:08.204Z,9.05
2023-05-14T01:24:36.205Z,9.60
2023-05-14T01:27:11.550Z,9.50
2023-05-14T01:29:44.318Z,12.32
2023-05-14T01:32:13.546Z,10.35
2023-05-14T01:34:42.207Z,9.10
2023-05-14T01:37:13.993Z,13.07
2023-05-14T01:39:43.261Z,9.30
2023-05-14T01:42:12.095Z,8.90
2023-05-14T01:44:40.200Z,9.00
2023-05-14T01:47:08.116Z,10.33
2023-05-14T01:49:37.150Z,9.90
2023-05-14T01:52:05.343Z,10.98
2023-05-14T01:54:34.742Z,11.57
2023-05-14T01:57:02.540Z,10.17
2023-05-14T01:59:30.572Z,13.70
2023-05-14T02:02:01.972Z,11.50
2023-05-14T02:04:29.866Z,11.60
2023-05-14T02:06:57.593Z,9.98
2023-05-14T02:09:25.692Z,10.75
2023-05-14T02:11:55.114Z,10.93
2023-05-14T02:14:22.896Z,9.97
2023-05-14T02:16:51.433Z,11.23
2023-05-14T02:19:19.249Z,10.82
2023-05-14T02:21:47.154Z,10.47
2023-05-14T02:24:15.111Z,13.73
2023-05-14T02:26:43.156Z,10.77
2023-05-14T02:29:12.361Z,11.73
2023-05-14T02:31:40.286Z,11.40
2023-05-14T02:34:08.112Z,9.77
2023-05-14T02:36:36.036Z,10.03
2023-05-14T02:39:04.625Z,9.90
2023-05-14T02:41:32.403Z,9.33
2023-05-14T02:44:00.217Z,9.40
2023-05-14T02:46:29.616Z,9.67
2023-05-14T02:48:57.684Z,10.47
2023-05-14T02:51:26.500Z,10.43
2023-05-14T02:53:54.325Z,13.97
2023-05-14T02:56:22.318Z,12.83
2023-05-14T02:58:50.097Z,10.90
2023-05-14T03:01:18.803Z,15.63
2023-05-14T03:03:49.870Z,9.20
2023-05-14T03:06:18.186Z,10.60
2023-05-14T03:08:46.181Z,12.10
2023-05-14T03:11:14.047Z,10.20
2023-05-14T03:13:41.836Z,11.10
2023-05-14T03:16:09.655Z,8.90
2023-05-14T03:18:37.519Z,10.53
2023-05-14T03:21:06.708Z,11.13
2023-05-14T03:23:35.166Z,10.77
2023-05-14T03:26:03.858Z,9.10
2023-05-14T03:28:31.961Z,12.25
2023-05-14T03:30:59.929Z,9.10
2023-05-14T03:33:27.751Z,11.00
2023-05-14T03:35:55.537Z,10.73
2023-05-14T03:38:24.650Z,10.88
2023-05-14T03:40:52.660Z,9.73
2023-05-14T03:43:20.468Z,9.82
2023-05-14T03:45:52.222Z,13.02
2023-05-14T03:48:20.586Z,10.02
2023-05-14T03:50:48.482Z,11.38
2023-05-14T03:53:16.783Z,11.35
2023-05-14T03:55:46.177Z,9.40
2023-05-14T03:58:14.722Z,10.90
2023-05-14T04:00:42.730Z,9.27
2023-05-14T04:03:11.265Z,9.23
2023-05-14T04:05:43.104Z,10.43
2023-05-14T04:08:10.822Z,16.23
2023-05-14T04:10:38.580Z,9.95
2023-05-14T04:13:08.203Z,10.27
2023-05-14T04:15:39.244Z,9.27
2023-05-14T04:18:07.426Z,9.07
2023-05-14T04:20:35.382Z,10.35
2023-05-14T04:23:03.125Z,11.38
2023-05-14T04:25:31.004Z,12.68
2023-05-14T04:27:59.060Z,10.70
2023-05-14T04:30:28.442Z,9.85
2023-05-14T04:32:56.404Z,12.38
2023-05-14T04:35:25.202Z,10.73
2023-05-14T04:37:53.277Z,13.55
2023-05-14T04:40:22.977Z,10.50
2023-05-14T04:42:51.121Z,9.10
2023-05-14T04:45:19.210Z,12.70
2023-05-14T04:47:48.552Z,10.63
2023-05-14T04:50:16.767Z,9.90
2023-05-14T04:52:44.564Z,9.57
2023-05-14T04:55:12.299Z,10.07
2023-05-14T04:57:40.081Z,11.43
2023-05-14T05:00:10.178Z,10.75
2023-05-14T05:02:38.093Z,8.55
2023-05-14T05:05:07.768Z,9.45
2023-05-14T05:07:36.942Z,9.93
2023-05-14T05:10:04.879Z,11.85
2023-05-14T05:12:32.706Z,11.05
2023-05-14T05:15:00.581Z,13.50
2023-05-14T05:17:28.489Z,8.00
2023-05-14T05:19:56.320Z,8.98
2023-05-14T05:22:25.783Z,8.77
2023-05-14T05:24:53.563Z,8.65
2023-05-14T05:27:22.090Z,13.02
2023-05-14T05:29:49.780Z,12.10
2023-05-14T05:32:17.646Z,9.82
2023-05-14T05:34:45.478Z,11.55
2023-05-14T05:37:14.883Z,6.78
2023-05-14T05:39:44.263Z,7.47
2023-05-14T05:42:11.925Z,11.82
2023-05-14T05:44:39.691Z,9.07
2023-05-14T05:47:07.622Z,8.80
2023-05-14T05:49:36.846Z,9.32
2023-05-14T05:52:05.097Z,8.55
2023-05-14T05:54:33.303Z,8.50
2023-05-14T05:57:02.503Z,7.43
2023-05-14T05:59:30.224Z,9.55
2023-05-14T06:01:58.009Z,8.63
2023-05-14T06:04:25.947Z,6.18
2023-05-14T06:06:54.252Z,9.85
2023-05-14T06:09:22.140Z,5.68
2023-05-14T06:11:49.946Z,6.28
2023-05-14T06:14:19.271Z,5.75
2023-05-14T06:16:47.138Z,5.03
2023-05-14T06:19:15.256Z,6.03
2023-05-14T06:21:43.070Z,7.82
2023-05-14T06:24:11.389Z,5.68
2023-05-14T06:26:39.064Z,4.78
2023-05-14T06:29:06.889Z,8.25
2023-05-14T06:31:36.078Z,4.95
2023-05-14T06:34:03.995Z,7.53
2023-05-14T06:36:31.712Z,6.47
2023-05-14T06:38:59.421Z,7.72
2023-05-14T06:41:27.179Z,5.72
2023-05-14T06:43:55.247Z,8.52
2023-05-14T06:46:23.059Z,5.63
2023-05-14T06:48:52.378Z,8.60
2023-05-14T06:51:20.183Z,6.10
2023-05-14T06:53:48.804Z,5.82
2023-05-14T06:56:16.595Z,6.30
2023-05-14T06:58:44.313Z,4.85
2023-05-14T07:01:12.180Z,7.50
2023-05-14T07:03:40.170Z,6.90
2023-05-14T07:06:10.357Z,9.32
2023-05-14T07:08:40.216Z,5.72
2023-05-14T07:11:08.188Z,6.40
2023-05-14T07:13:36.291Z,4.25
2023-05-14T07:16:03.981Z,4.68
2023-05-14T07:18:31.763Z,7.20
2023-05-14T07:20:59.491Z,6.97
2023-05-14T07:23:28.786Z,6.13
2023-05-14T07:25:56.550Z,6.10
2023-05-14T07:28:24.233Z,4.45
2023-05-14T07:30:52.016Z,10.10
2023-05-14T07:33:19.782Z,4.80
2023-05-14T07:35:47.610Z,6.40
2023-05-14T07:38:15.827Z,5.18
2023-05-14T07:40:44.992Z,6.22
2023-05-14T07:43:12.850Z,7.63
2023-05-14T07:45:40.838Z,6.38
2023-05-14T07:48:09.010Z,3.92
2023-05-14T07:50:37.994Z,5.07
2023-05-14T07:53:05.717Z,4.40
2023-05-14T07:55:33.412Z,5.95
2023-05-14T07:58:02.668Z,6.00
2023-05-14T08:00:30.724Z,7.68
2023-05-14T08:02:58.720Z,9.35
2023-05-14T08:05:26.682Z,5.78
2023-05-14T08:07:54.631Z,8.13
2023-05-14T08:10:22.516Z,5.25
2023-05-14T08:12:51.605Z,5.50
2023-05-14T08:15:21.042Z,5.40
2023-05-14T08:17:48.816Z,4.97
2023-05-14T08:20:16.578Z,7.47
2023-05-14T08:22:44.387Z,7.68
2023-05-14T08:25:12.566Z,6.15
2023-05-14T08:27:41.203Z,5.57
2023-05-14T08:30:09.755Z,5.93
2023-05-14T08:32:39.411Z,8.13
2023-05-14T08:35:08.288Z,5.78
2023-05-14T08:37:36.045Z,9.27
2023-05-14T08:40:04.066Z,7.28
2023-05-14T08:42:32.664Z,5.10
2023-05-14T08:45:03.140Z,4.97
2023-05-14T08:47:32.015Z,6.45
2023-05-14T08:50:04.436Z,5.03
2023-05-14T08:52:32.482Z,5.40
2023-05-14T08:55:01.412Z,4.18
2023-05-14T08:57:31.187Z,5.97
2023-05-14T09:00:01.297Z,5.35
2023-05-14T09:02:30.283Z,4.55
2023-05-14T09:05:01.948Z,4.68
2023-05-14T09:07:30.108Z,4.22
2023-05-14T09:09:58.057Z,7.70
2023-05-14T09:12:26.231Z,3.78
2023-05-14T09:14:54.163Z,5.63
2023-05-14T09:17:22.211Z,6.32
2023-05-14T09:19:53.161Z,6.40
2023-05-14T09:22:23.065Z,5.78
2023-05-14T09:25:05.066Z,4.57
2023-05-14T09:27:34.218Z,4.55
2023-05-14T09:30:10.817Z,6.45
2023-05-14T09:32:46.211Z,5.85
2023-05-14T09:35:17.650Z,7.15
2023-05-14T09:37:48.639Z,5.65
2023-05-14T09:40:17.642Z,7.13
2023-05-14T09:42:45.626Z,5.43
2023-05-14T09:45:13.774Z,5.43
2023-05-14T09:47:41.730Z,8.27
2023-05-14T09:50:10.050Z,6.03
2023-05-14T09:52:38.431Z,6.97
2023-05-14T09:55:09.024Z,3.22
2023-05-14T09:57:37.177Z,4.10
2023-05-14T10:00:05.851Z,7.43
2023-05-14T10:02:38.819Z,5.68
2023-05-14T10:05:07.981Z,5.03
2023-05-14T10:07:41.479Z,6.13
2023-05-14T10:10:16.424Z,6.85
2023-05-14T10:12:48.537Z,4.63
2023-05-14T10:15:22.654Z,4.55
2023-05-14T10:17:55.752Z,7.00
2023-05-14T10:20:24.682Z,3.35
2023-05-14T10:22:52.976Z,5.32
2023-05-14T10:25:23.202Z,3.03
2023-05-14T10:28:02.050Z,4.18
2023-05-14T10:30:37.141Z,6.13
2023-05-14T10:33:09.641Z,5.40
2023-05-14T10:36:00.043Z,6.07
2023-05-14T10:38:29.233Z,4.10
2023-05-14T10:41:06.257Z,5.75
2023-05-14T10:43:39.971Z,6.85
2023-05-14T10:46:09.633Z,5.82
2023-05-14T10:48:38.737Z,4.15
2023-05-14T10:51:09.248Z,6.57
2023-05-14T10:53:39.237Z,5.72
2023-05-14T10:56:10.696Z,6.10
2023-05-14T10:58:41.630Z,4.20
2023-05-14T11:01:11.216Z,4.38
2023-05-14T11:03:44.887Z,4.35
2023-05-14T11:06:14.933Z,5.53
2023-05-14T11:08:43.786Z,4.85
2023-05-14T11:11:13.045Z,3.40
2023-05-14T11:13:42.252Z,5.72
2023-05-14T11:16:22.950Z,5.35
2023-05-14T11:18:55.279Z,5.00
2023-05-14T11:21:23.333Z,4.22
2023-05-14T11:23:51.596Z,5.95
2023-05-14T11:26:21.829Z,5.72
2023-05-14T11:28:49.987Z,4.47
2023-05-14T11:31:18.001Z,6.15
2023-05-14T11:33:45.886Z,5.57
2023-05-14T11:36:13.995Z,4.50
2023-05-14T11:38:48.741Z,7.05
2023-05-14T11:41:16.519Z,4.18
2023-05-14T11:43:45.765Z,5.35
2023-05-14T11:46:18.068Z,5.57
2023-05-14T11:48:46.003Z,7.10
2023-05-14T11:51:14.022Z,4.60
2023-05-14T11:53:42.101Z,6.22
2023-05-14T11:56:10.164Z,4.70
2023-05-14T11:58:38.089Z,4.32
2023-05-14T12:01:07.426Z,3.70
2023-05-14T12:03:36.313Z,6.30
2023-05-14T12:06:08.208Z,4.30
2023-05-14T12:08:36.278Z,6.05
2023-05-14T12:11:04.553Z,6.22
2023-05-14T12:13:35.432Z,7.55
2023-05-14T12:16:03.894Z,6.70
2023-05-14T12:18:34.229Z,5.22
2023-05-14T12:21:04.449Z,5.63
2023-05-14T12:23:33.053Z,4.88
2023-05-14T12:26:02.910Z,6.70
2023-05-14T12:28:31.028Z,5.15
2023-05-14T12:30:59.647Z,5.35
2023-05-14T12:33:28.501Z,5.45
2023-05-14T12:36:07.414Z,4.93
2023-05-14T12:38:47.981Z,4.40
2023-05-14T12:41:15.801Z,3.45
2023-05-14T12:43:44.635Z,4.55
2023-05-14T12:46:12.651Z,4.57
2023-05-14T12:48:40.536Z,4.97
2023-05-14T12:51:09.742Z,7.78
2023-05-14T12:53:37.596Z,6.28
2023-05-14T12:56:06.107Z,4.63
2023-05-14T12:58:33.891Z,4.15
2023-05-14T13:01:01.911Z,4.60
2023-05-14T13:03:29.750Z,6.43
2023-05-14T13:05:57.589Z,8.77
2023-05-14T13:08:27.351Z,5.20
2023-05-14T13:10:56.480Z,4.53
2023-05-14T13:13:24.886Z,4.63
2023-05-14T13:15:53.941Z,8.55
2023-05-14T13:18:21.856Z,6.00
2023-05-14T13:20:53.164Z,4.75
2023-05-14T13:23:21.033Z,6.60
2023-05-14T13:25:50.781Z,5.25
2023-05-14T13:28:19.628Z,5.70
2023-05-14T13:31:07.736Z,7.80
2023-05-14T13:33:37.097Z,7.00
2023-05-14T13:36:05.797Z,5.45
2023-05-14T13:38:34.322Z,3.97
2023-05-14T13:41:03.861Z,4.03
2023-05-14T13:43:32.075Z,5.95
2023-05-14T13:46:00.306Z,4.30
2023-05-14T13:48:28.785Z,4.95
2023-05-14T13:50:56.698Z,3.75
2023-05-14T13:53:26.137Z,5.10
2023-05-14T13:55:58.107Z,7.00
2023-05-14T13:58:28.194Z,5.93
2023-05-14T14:00:56.654Z,4.07
2023-05-14T14:03:24.525Z,4.43
2023-05-14T14:05:52.728Z,5.10
2023-05-14T14:08:23.314Z,4.28
2023-05-14T14:10:52.022Z,5.03
2023-05-14T14:13:21.197Z,6.93
2023-05-14T14:15:51.166Z,5.10
2023-05-14T14:18:19.157Z,6.05
2023-05-14T14:20:46.897Z,4.78
2023-05-14T14:23:16.311Z,3.72
2023-05-14T14:25:44.370Z,4.53
2023-05-14T14:28:12.486Z,6.28
2023-05-14T14:30:40.556Z,3.90
2023-05-14T14:33:10.057Z,4.10
2023-05-14T14:35:37.939Z,5.43
2023-05-14T14:38:05.720Z,3.92
2023-05-14T14:40:34.351Z,4.85
2023-05-14T14:43:02.303Z,5.68
2023-05-14T14:45:30.221Z,4.30
2023-05-14T14:48:31.445Z,6.55
2023-05-14T14:50:59.332Z,3.88
2023-05-14T14:53:27.125Z,4.90
2023-05-14T14:55:55.136Z,4.05
2023-05-14T14:58:23.653Z,4.93
2023-05-14T15:00:53.987Z,9.35
2023-05-14T15:03:22.733Z,5.55
2023-05-14T15:05:53.260Z,4.85
2023-05-14T15:08:21.840Z,7.47
2023-05-14T15:10:49.716Z,7.10
2023-05-14T15:13:17.655Z,6.80
2023-05-14T15:15:45.540Z,3.70
2023-05-14T15:18:13.489Z,4.97
2023-05-14T15:20:41.326Z,6.90
2023-05-14T15:23:11.544Z,4.00
2023-05-14T15:25:40.366Z,4.05
2023-05-14T15:28:08.124Z,4.03
2023-05-14T15:30:36.264Z,4.50
2023-05-14T15:33:04.251Z,6.50
2023-05-14T15:35:32.161Z,6.28
2023-05-14T15:38:00.025Z,5.15
2023-05-14T15:40:29.582Z,5.85
2023-05-14T15:42:57.433Z,4.25
2023-05-14T15:45:25.318Z,5.25
2023-05-14T15:47:53.208Z,4.78
2023-05-14T15:50:21.549Z,4.35
2023-05-14T15:52:49.793Z,4.03
2023-05-14T15:55:17.788Z,4.07
2023-05-14T15:57:47.081Z,4.30
2023-05-14T16:00:15.528Z,3.95
2023-05-14T16:02:43.545Z,5.15
2023-05-14T16:05:11.436Z,6.95
2023-05-14T16:07:39.503Z,5.05
2023-05-14T16:10:08.380Z,5.63
2023-05-14T16:12:36.378Z,5.18
2023-05-14T16:15:07.854Z,4.90
2023-05-14T16:17:35.992Z,3.72
2023-05-14T16:20:04.839Z,5.03
2023-05-14T16:22:34.676Z,4.90
2023-05-14T16:25:03.530Z,4.45
2023-05-14T16:27:31.616Z,4.03
2023-05-14T16:29:59.474Z,7.25
2023-05-14T16:32:28.792Z,4.57
2023-05-14T16:34:56.726Z,5.13
2023-05-14T16:37:26.598Z,5.15
2023-05-14T16:39:54.923Z,4.78
2023-05-14T16:42:22.742Z,4.55
2023-05-14T16:44:50.528Z,4.57
2023-05-14T16:47:18.378Z,5.32
2023-05-14T16:49:47.488Z,6.75
2023-05-14T16:52:15.415Z,3.85
2023-05-14T16:54:43.216Z,5.72
2023-05-14T16:57:11.047Z,5.18
2023-05-14T16:59:38.835Z,6.10
2023-05-14T17:02:07.064Z,4.03
2023-05-14T17:04:38.783Z,6.15
2023-05-14T17:07:08.129Z,5.13
2023-05-14T17:09:35.971Z,7.10
2023-05-14T17:12:03.911Z,5.32
2023-05-14T17:14:31.772Z,5.97
2023-05-14T17:16:59.526Z,5.70
2023-05-14T17:19:27.284Z,4.57
2023-05-14T17:21:55.102Z,5.82
2023-05-14T17:24:24.278Z,5.88
2023-05-14T17:26:52.063Z,5.82
2023-05-14T17:29:19.994Z,6.13
2023-05-14T17:31:48.258Z,5.28
2023-05-14T17:34:16.246Z,3.72
2023-05-14T17:36:44.089Z,5.35
2023-05-14T17:39:11.888Z,3.85
2023-05-14T17:41:41.992Z,4.47
2023-05-14T17:44:12.084Z,4.65
2023-05-14T17:46:41.577Z,6.82
2023-05-14T17:49:09.614Z,4.20
2023-05-14T17:51:37.356Z,5.30
2023-05-14T17:54:05.281Z,4.72
2023-05-14T17:56:33.235Z,4.50
2023-05-14T17:59:02.751Z,5.68
2023-05-14T18:01:30.809Z,4.90
2023-05-14T18:03:58.839Z,7.40
2023-05-14T18:06:26.730Z,7.15
2023-05-14T18:08:54.631Z,7.68
2023-05-14T18:11:22.443Z,6.00
2023-05-14T18:13:50.255Z,9.63
2023-05-14T18:16:19.514Z,9.13
2023-05-14T18:18:47.713Z,6.45
2023-05-14T18:21:16.284Z,5.75
2023-05-14T18:23:44.392Z,7.35
2023-05-14T18:26:12.238Z,11.40
2023-05-14T18:28:40.093Z,7.85
2023-05-14T18:31:08.899Z,7.20
2023-05-14T18:33:38.232Z,5.25
2023-05-14T18:36:06.453Z,7.00
2023-05-14T18:38:34.206Z,6.50
2023-05-14T18:41:02.074Z,7.47
2023-05-14T18:43:29.998Z,5.55
2023-05-14T18:45:57.912Z,6.35
2023-05-14T18:48:26.349Z,6.72
2023-05-14T18:50:55.508Z,9.80
2023-05-14T18:53:23.274Z,6.75
2023-05-14T18:55:51.134Z,8.10
2023-05-14T18:58:18.982Z,8.05
2023-05-14T19:00:47.009Z,5.95
2023-05-14T19:03:15.177Z,5.80
2023-05-14T19:05:43.000Z,6.03
2023-05-14T19:08:12.112Z,5.18
2023-05-14T19:10:39.985Z,5.90
2023-05-14T19:13:10.402Z,9.27
2023-05-14T19:15:38.428Z,8.93
2023-05-14T19:18:06.445Z,10.02
2023-05-14T19:20:34.330Z,17.25
2023-05-14T19:23:02.041Z,17.02
2023-05-14T19:25:31.246Z,14.40
2023-05-14T19:28:01.536Z,14.18
2023-05-14T19:30:29.456Z,16.55
2023-05-14T19:32:58.226Z,9.00
2023-05-14T19:35:26.225Z,13.40
2023-05-14T19:37:54.079Z,10.38
2023-05-14T19:40:21.807Z,16.80
2023-05-14T19:42:51.128Z,15.00
2023-05-14T19:45:18.838Z,8.63
2023-05-14T19:47:46.704Z,10.15
2023-05-14T19:50:14.701Z,11.48
2023-05-14T19:52:42.480Z,15.77
2023-05-14T19:55:10.522Z,13.55
2023-05-14T19:57:38.989Z,15.00
2023-05-14T20:00:10.473Z,8.95
2023-05-14T20:02:40.932Z,10.68
2023-05-14T20:05:10.570Z,11.82
2023-05-14T20:07:40.394Z,10.45
2023-05-14T20:10:09.450Z,10.20
2023-05-14T20:12:37.274Z,8.95
2023-05-14T20:15:05.640Z,11.05
2023-05-14T20:17:34.777Z,12.73
2023-05-14T20:20:03.024Z,15.25
2023-05-14T20:22:30.784Z,10.65
2023-05-14T20:24:58.514Z,14.88
2023-05-14T20:27:26.303Z,14.68
2023-05-14T20:29:54.207Z,12.82
2023-05-14T20:32:24.736Z,11.70
2023-05-14T20:34:54.422Z,9.18
2023-05-14T20:37:23.959Z,12.98
2023-05-14T20:39:53.075Z,7.88
2023-05-14T20:42:21.074Z,9.02
2023-05-14T20:44:49.699Z,11.32
2023-05-14T20:47:20.366Z,8.10
2023-05-14T20:49:48.288Z,11.40
2023-05-14T20:52:17.843Z,9.70
2023-05-14T20:54:45.755Z,8.60
2023-05-14T20:57:15.256Z,8.38
2023-05-14T20:59:43.375Z,7.15
2023-05-14T21:02:11.826Z,8.75
2023-05-14T21:04:39.967Z,8.27
2023-05-14T21:07:07.971Z,9.35
2023-05-14T21:09:37.169Z,14.88
2023-05-14T21:12:05.613Z,10.63
2023-05-14T21:14:33.369Z,15.88
2023-05-14T21:17:01.181Z,18.00
2023-05-14T21:19:29.034Z,12.25
2023-05-14T21:21:56.718Z,12.70
2023-05-14T21:24:24.437Z,13.25
2023-05-14T21:26:53.751Z,17.67
2023-05-14T21:29:21.615Z,10.90
2023-05-14T21:31:50.199Z,9.50
2023-05-14T21:34:18.069Z,10.88
2023-05-14T21:36:46.814Z,10.38
2023-05-14T21:39:15.724Z,9.63
2023-05-14T21:41:43.554Z,11.88
2023-05-14T21:44:12.784Z,10.48
2023-05-14T21:46:40.536Z,9.40
2023-05-14T21:49:08.458Z,9.65
2023-05-14T21:51:36.231Z,7.85
2023-05-14T21:54:04.076Z,8.57
2023-05-14T21:56:32.108Z,7.70
2023-05-14T21:58:59.974Z,8.73
2023-05-14T22:01:29.424Z,10.57
2023-05-14T22:03:58.006Z,7.57
2023-05-14T22:06:26.177Z,9.95
2023-05-14T22:08:54.042Z,6.78
2023-05-14T22:11:22.370Z,9.68
2023-05-14T22:13:50.110Z,7.72
2023-05-14T22:16:17.956Z,7.90
2023-05-14T22:18:47.248Z,9.10
2023-05-14T22:21:15.129Z,9.20
2023-05-14T22:23:42.942Z,8.05
2023-05-14T22:26:10.691Z,7.95
2023-05-14T22:28:42.832Z,8.20
2023-05-14T22:31:10.977Z,7.80
2023-05-14T22:33:38.767Z,8.20
2023-05-14T22:36:08.763Z,9.27
2023-05-14T22:38:38.180Z,6.68
2023-05-14T22:41:06.044Z,7.72
2023-05-14T22:43:33.796Z,9.57
2023-05-14T22:46:01.700Z,8.02
2023-05-14T22:48:29.481Z,9.15
2023-05-14T22:50:57.206Z,8.23
2023-05-14T22:53:26.392Z,9.32
2023-05-14T22:55:54.138Z,8.73
2023-05-14T22:58:21.932Z,9.30
2023-05-14T23:00:49.697Z,8.43
2023-05-14T23:03:17.576Z,7.70
2023-05-14T23:05:45.361Z,8.50
2023-05-14T23:08:13.230Z,7.47
2023-05-14T23:10:42.387Z,8.07
2023-05-14T23:13:10.209Z,10.77
2023-05-14T23:15:38.778Z,7.93
2023-05-14T23:18:06.915Z,9.80
2023-05-14T23:20:34.721Z,8.80
2023-05-14T23:23:02.553Z,6.82
2023-05-14T23:25:30.391Z,9.38
2023-05-14T23:27:59.476Z,8.45
2023-05-14T23:30:27.272Z,9.52
2023-05-14T23:32:55.032Z,9.98
2023-05-14T23:35:23.090Z,7.93
2023-05-14T23:37:51.243Z,8.88
2023-05-14T23:40:21.351Z,7.57
2023-05-14T23:42:49.096Z,9.15
2023-05-14T23:45:18.397Z,10.25
2023-05-14T23:47:46.287Z,8.52
2023-05-14T23:50:14.121Z,7.55
2023-05-14T23:52:42.051Z,9.20
2023-05-14T23:55:10.738Z,12.93
2023-05-14T23:57:38.647Z,7.97
